createdAt,value
2023-04-25T00:00:24.457Z,526.00
2023-04-25T00:01:24.503Z,527.00
2023-04-25T00:02:24.631Z,528.00
2023-04-25T00:03:24.821Z,530.00
2023-04-25T00:04:25.030Z,531.00
2023-04-25T00:05:24.826Z,531.00
2023-04-25T00:06:24.843Z,532.00
2023-04-25T00:07:24.910Z,531.00
2023-04-25T00:08:24.978Z,532.00
2023-04-25T00:09:25.068Z,534.00
2023-04-25T00:10:25.129Z,533.00
2023-04-25T00:11:25.202Z,532.00
2023-04-25T00:12:25.276Z,534.00
2023-04-25T00:13:25.345Z,534.00
2023-04-25T00:14:25.410Z,535.00
2023-04-25T00:15:25.492Z,536.00
2023-04-25T00:16:25.574Z,535.00
2023-04-25T00:17:25.645Z,535.00
2023-04-25T00:18:25.634Z,537.00
2023-04-25T00:19:25.650Z,533.00
2023-04-25T00:20:25.650Z,531.00
2023-04-25T00:21:25.674Z,531.00
2023-04-25T00:22:25.663Z,529.00
2023-04-25T00:23:25.674Z,529.00
2023-04-25T00:24:25.676Z,530.00
2023-04-25T00:25:25.693Z,528.00
2023-04-25T00:26:25.695Z,530.00
2023-04-25T00:27:25.713Z,530.00
2023-04-25T00:28:25.717Z,529.00
2023-04-25T00:29:25.729Z,530.00
2023-04-25T00:30:25.746Z,532.00
2023-04-25T00:31:25.770Z,529.00
2023-04-25T00:32:25.805Z,529.00
2023-04-25T00:33:25.841Z,526.00
2023-04-25T00:34:25.926Z,527.00
2023-04-25T00:35:26.033Z,528.00
2023-04-25T00:36:26.079Z,528.00
2023-04-25T00:37:26.152Z,527.00
2023-04-25T00:38:26.238Z,527.00
2023-04-25T00:39:26.304Z,527.00
2023-04-25T00:40:26.394Z,527.00
2023-04-25T00:41:26.464Z,529.00
2023-04-25T00:42:26.534Z,532.00
2023-04-25T00:43:26.612Z,530.00
2023-04-25T00:44:26.680Z,529.00
2023-04-25T00:45:26.784Z,526.00
2023-04-25T00:46:26.851Z,526.00
2023-04-25T00:47:26.919Z,529.00
2023-04-25T00:48:27.007Z,529.00
2023-04-25T00:49:27.105Z,527.00
2023-04-25T00:50:27.191Z,525.00
2023-04-25T00:51:27.221Z,525.00
2023-04-25T00:52:27.304Z,525.00
2023-04-25T00:53:27.408Z,524.00
2023-04-25T00:54:27.480Z,521.00
2023-04-25T00:55:27.562Z,523.00
2023-04-25T00:56:27.649Z,525.00
2023-04-25T00:57:27.716Z,522.00
2023-04-25T00:58:27.806Z,522.00
2023-04-25T00:59:27.878Z,525.00
2023-04-25T01:00:28.138Z,528.00
2023-04-25T01:01:28.100Z,529.00
2023-04-25T01:02:28.192Z,528.00
2023-04-25T01:03:28.357Z,525.00
2023-04-25T01:04:28.325Z,524.00
2023-04-25T01:05:28.373Z,523.00
2023-04-25T01:06:28.484Z,521.00
2023-04-25T01:07:28.542Z,522.00
2023-04-25T01:08:28.616Z,520.00
2023-04-25T01:09:28.710Z,519.00
2023-04-25T01:10:28.782Z,525.00
2023-04-25T01:11:28.864Z,524.00
2023-04-25T01:12:28.939Z,524.00
2023-04-25T01:13:29.034Z,524.00
2023-04-25T01:14:29.103Z,524.00
2023-04-25T01:15:29.197Z,521.00
2023-04-25T01:16:29.341Z,519.00
2023-04-25T01:17:29.385Z,518.00
2023-04-25T01:18:29.443Z,516.00
2023-04-25T01:19:29.523Z,517.00
2023-04-25T01:20:29.621Z,517.00
2023-04-25T01:21:29.689Z,518.00
2023-04-25T01:22:29.783Z,518.00
2023-04-25T01:23:29.860Z,516.00
2023-04-25T01:24:29.931Z,517.00
2023-04-25T01:25:30.035Z,515.00
2023-04-25T01:26:30.111Z,514.00
2023-04-25T01:27:30.190Z,516.00
2023-04-25T01:28:30.266Z,518.00
2023-04-25T01:29:30.344Z,519.00
2023-04-25T01:30:30.419Z,519.00
2023-04-25T01:31:30.542Z,518.00
2023-04-25T01:32:30.629Z,519.00
2023-04-25T01:33:30.692Z,518.00
2023-04-25T01:34:30.768Z,519.00
2023-04-25T01:35:30.866Z,520.00
2023-04-25T01:36:30.935Z,519.00
2023-04-25T01:37:31.019Z,521.00
2023-04-25T01:38:31.102Z,522.00
2023-04-25T01:39:31.190Z,521.00
2023-04-25T01:40:31.282Z,517.00
2023-04-25T01:41:31.357Z,517.00
2023-04-25T01:42:31.428Z,515.00
2023-04-25T01:43:31.512Z,515.00
2023-04-25T01:44:31.594Z,516.00
2023-04-25T01:45:31.682Z,517.00
2023-04-25T01:46:31.806Z,516.00
2023-04-25T01:47:33.067Z,516.00
2023-04-25T01:48:31.710Z,519.00
2023-04-25T01:49:31.737Z,518.00
2023-04-25T01:50:31.743Z,519.00
2023-04-25T01:51:31.765Z,522.00
2023-04-25T01:52:31.759Z,522.00
2023-04-25T01:53:31.772Z,520.00
2023-04-25T01:54:31.862Z,518.00
2023-04-25T01:55:31.830Z,519.00
2023-04-25T01:56:31.874Z,515.00
2023-04-25T01:57:31.931Z,512.00
2023-04-25T01:58:32.002Z,515.00
2023-04-25T01:59:32.068Z,512.00
2023-04-25T02:00:32.133Z,513.00
2023-04-25T02:01:32.269Z,514.00
2023-04-25T02:02:32.447Z,515.00
2023-04-25T02:03:32.511Z,514.00
2023-04-25T02:04:32.611Z,513.00
2023-04-25T02:05:32.465Z,513.00
2023-04-25T02:06:32.526Z,512.00
2023-04-25T02:07:32.594Z,512.00
2023-04-25T02:08:32.659Z,511.00
2023-04-25T02:09:32.736Z,509.00
2023-04-25T02:10:32.817Z,509.00
2023-04-25T02:11:32.870Z,513.00
2023-04-25T02:12:32.922Z,511.00
2023-04-25T02:13:32.987Z,512.00
2023-04-25T02:14:33.034Z,513.00
2023-04-25T02:15:33.076Z,513.00
2023-04-25T02:16:33.202Z,515.00
2023-04-25T02:17:33.121Z,513.00
2023-04-25T02:18:33.175Z,515.00
2023-04-25T02:19:33.227Z,512.00
2023-04-25T02:20:33.387Z,511.00
2023-04-25T02:21:33.347Z,512.00
2023-04-25T02:22:33.380Z,512.00
2023-04-25T02:23:33.420Z,514.00
2023-04-25T02:24:33.439Z,517.00
2023-04-25T02:25:33.483Z,520.00
2023-04-25T02:26:33.526Z,519.00
2023-04-25T02:27:33.517Z,518.00
2023-04-25T02:28:33.583Z,517.00
2023-04-25T02:29:33.602Z,515.00
2023-04-25T02:30:33.629Z,511.00
2023-04-25T02:31:33.700Z,510.00
2023-04-25T02:32:33.764Z,511.00
2023-04-25T02:33:33.765Z,513.00
2023-04-25T02:34:33.816Z,512.00
2023-04-25T02:35:33.882Z,510.00
2023-04-25T02:36:33.939Z,514.00
2023-04-25T02:37:33.997Z,515.00
2023-04-25T02:38:34.099Z,513.00
2023-04-25T02:39:34.100Z,511.00
2023-04-25T02:40:34.125Z,511.00
2023-04-25T02:41:34.136Z,510.00
2023-04-25T02:42:34.168Z,510.00
2023-04-25T02:43:34.225Z,511.00
2023-04-25T02:44:34.309Z,511.00
2023-04-25T02:45:34.366Z,508.00
2023-04-25T02:46:39.501Z,508.00
2023-04-25T02:47:35.450Z,510.00
2023-04-25T02:48:34.444Z,511.00
2023-04-25T02:49:34.440Z,512.00
2023-04-25T02:50:34.453Z,511.00
2023-04-25T02:51:34.479Z,507.00
2023-04-25T02:52:34.460Z,505.00
2023-04-25T02:53:34.477Z,507.00
2023-04-25T02:54:34.486Z,506.00
2023-04-25T02:55:34.491Z,507.00
2023-04-25T02:56:34.495Z,507.00
2023-04-25T02:57:34.488Z,505.00
2023-04-25T02:58:34.497Z,504.00
2023-04-25T02:59:34.492Z,499.00
2023-04-25T03:00:34.546Z,494.00
2023-04-25T03:01:34.520Z,491.00
2023-04-25T03:02:34.627Z,485.00
2023-04-25T03:03:34.592Z,480.00
2023-04-25T03:04:34.621Z,474.00
2023-04-25T03:05:34.549Z,471.00
2023-04-25T03:06:34.576Z,463.00
2023-04-25T03:07:34.573Z,459.00
2023-04-25T03:08:34.597Z,457.00
2023-04-25T03:09:34.617Z,453.00
2023-04-25T03:10:34.680Z,454.00
2023-04-25T03:11:34.742Z,454.00
2023-04-25T03:12:34.784Z,452.00
2023-04-25T03:13:34.856Z,452.00
2023-04-25T03:14:34.929Z,449.00
2023-04-25T03:15:35.006Z,442.00
2023-04-25T03:16:35.135Z,440.00
2023-04-25T03:17:35.269Z,436.00
2023-04-25T03:18:35.236Z,432.00
2023-04-25T03:19:35.282Z,430.00
2023-04-25T03:20:35.317Z,429.00
2023-04-25T03:21:35.348Z,427.00
2023-04-25T03:22:35.386Z,426.00
2023-04-25T03:23:35.447Z,423.00
2023-04-25T03:24:35.497Z,419.00
2023-04-25T03:25:35.552Z,413.00
2023-04-25T03:26:35.600Z,413.00
2023-04-25T03:27:35.600Z,412.00
2023-04-25T03:28:35.611Z,411.00
2023-04-25T03:29:35.633Z,409.00
2023-04-25T03:30:35.674Z,408.00
2023-04-25T03:31:35.769Z,408.00
2023-04-25T03:32:35.816Z,411.00
2023-04-25T03:33:35.711Z,410.00
2023-04-25T03:34:35.730Z,411.00
2023-04-25T03:35:35.747Z,409.00
2023-04-25T03:36:35.758Z,410.00
2023-04-25T03:37:35.790Z,409.00
2023-04-25T03:38:35.795Z,409.00
2023-04-25T03:39:35.801Z,406.00
2023-04-25T03:40:35.835Z,406.00
2023-04-25T03:41:35.839Z,405.00
2023-04-25T03:42:35.845Z,403.00
2023-04-25T03:43:35.861Z,402.00
2023-04-25T03:44:35.869Z,400.00
2023-04-25T03:45:35.910Z,398.00
2023-04-25T03:46:35.915Z,398.00
2023-04-25T03:47:35.957Z,395.00
2023-04-25T03:48:35.940Z,396.00
2023-04-25T03:49:35.940Z,391.00
2023-04-25T03:50:35.972Z,389.00
2023-04-25T03:51:35.987Z,388.00
2023-04-25T03:52:35.996Z,386.00
2023-04-25T03:53:36.017Z,387.00
2023-04-25T03:54:36.049Z,387.00
2023-04-25T03:55:36.109Z,387.00
2023-04-25T03:56:36.170Z,388.00
2023-04-25T03:57:36.228Z,387.00
2023-04-25T03:58:36.276Z,388.00
2023-04-25T03:59:36.350Z,388.00
2023-04-25T04:00:36.397Z,387.00
2023-04-25T04:01:36.452Z,387.00
2023-04-25T04:02:36.626Z,388.00
2023-04-25T04:03:36.822Z,391.00
2023-04-25T04:04:37.013Z,388.00
2023-04-25T04:05:36.736Z,386.00
2023-04-25T04:06:36.787Z,386.00
2023-04-25T04:07:36.877Z,384.00
2023-04-25T04:08:36.928Z,384.00
2023-04-25T04:09:36.999Z,386.00
2023-04-25T04:10:37.064Z,387.00
2023-04-25T04:11:37.133Z,388.00
2023-04-25T04:12:37.154Z,389.00
2023-04-25T04:13:37.174Z,387.00
2023-04-25T04:14:37.180Z,387.00
2023-04-25T04:15:37.235Z,386.00
2023-04-25T04:16:37.299Z,387.00
2023-04-25T04:17:37.241Z,382.00
2023-04-25T04:18:37.254Z,386.00
2023-04-25T04:19:37.296Z,387.00
2023-04-25T04:20:37.263Z,387.00
2023-04-25T04:21:37.287Z,387.00
2023-04-25T04:22:37.330Z,387.00
2023-04-25T04:23:39.406Z,384.00
2023-04-25T04:24:37.471Z,382.00
2023-04-25T04:25:37.548Z,384.00
2023-04-25T04:26:37.641Z,386.00
2023-04-25T04:27:37.715Z,386.00
2023-04-25T04:28:37.793Z,385.00
2023-04-25T04:29:37.889Z,386.00
2023-04-25T04:30:37.955Z,388.00
2023-04-25T04:31:38.047Z,388.00
2023-04-25T04:32:38.120Z,388.00
2023-04-25T04:33:38.200Z,388.00
2023-04-25T04:34:38.270Z,389.00
2023-04-25T04:35:38.342Z,389.00
2023-04-25T04:36:38.423Z,391.00
2023-04-25T04:37:38.552Z,389.00
2023-04-25T04:38:40.121Z,392.00
2023-04-25T04:39:38.599Z,394.00
2023-04-25T04:40:38.623Z,394.00
2023-04-25T04:41:38.635Z,393.00
2023-04-25T04:42:38.663Z,392.00
2023-04-25T04:43:38.695Z,392.00
2023-04-25T04:44:38.698Z,390.00
2023-04-25T04:45:38.727Z,388.00
2023-04-25T04:46:38.994Z,391.00
2023-04-25T04:47:38.870Z,388.00
2023-04-25T04:48:38.769Z,389.00
2023-04-25T04:49:38.788Z,389.00
2023-04-25T04:50:38.809Z,386.00
2023-04-25T04:51:38.808Z,384.00
2023-04-25T04:52:38.828Z,385.00
2023-04-25T04:53:38.837Z,387.00
2023-04-25T04:54:38.854Z,386.00
2023-04-25T04:55:38.873Z,381.00
2023-04-25T04:56:38.928Z,380.00
2023-04-25T04:57:39.032Z,384.00
2023-04-25T04:58:38.952Z,384.00
2023-04-25T04:59:38.959Z,386.00
2023-04-25T05:00:39.001Z,386.00
2023-04-25T05:01:38.995Z,386.00
2023-04-25T05:02:39.107Z,384.00
2023-04-25T05:03:39.165Z,386.00
2023-04-25T05:04:39.152Z,387.00
2023-04-25T05:05:39.083Z,386.00
2023-04-25T05:06:39.103Z,387.00
2023-04-25T05:07:39.125Z,383.00
2023-04-25T05:08:39.138Z,385.00
2023-04-25T05:09:39.157Z,383.00
2023-04-25T05:10:39.174Z,385.00
2023-04-25T05:11:39.197Z,384.00
2023-04-25T05:12:39.223Z,382.00
2023-04-25T05:13:39.228Z,379.00
2023-04-25T05:14:39.236Z,377.00
2023-04-25T05:15:39.266Z,376.00
2023-04-25T05:16:39.372Z,376.00
2023-04-25T05:17:39.393Z,376.00
2023-04-25T05:18:39.429Z,378.00
2023-04-25T05:19:39.496Z,379.00
2023-04-25T05:20:39.568Z,379.00
2023-04-25T05:21:39.612Z,378.00
2023-04-25T05:22:39.655Z,377.00
2023-04-25T05:23:39.701Z,375.00
2023-04-25T05:24:39.760Z,376.00
2023-04-25T05:25:39.774Z,379.00
2023-04-25T05:26:39.788Z,380.00
2023-04-25T05:27:39.811Z,379.00
2023-04-25T05:28:39.832Z,379.00
2023-04-25T05:29:39.837Z,382.00
2023-04-25T05:30:39.847Z,394.00
2023-04-25T05:31:39.951Z,404.00
2023-04-25T05:32:39.895Z,414.00
2023-04-25T05:33:39.904Z,422.00
2023-04-25T05:34:39.925Z,443.00
2023-04-25T05:35:39.961Z,454.00
2023-04-25T05:36:40.076Z,581.00
2023-04-25T05:37:39.974Z,569.00
2023-04-25T05:38:39.990Z,575.00
2023-04-25T05:39:40.036Z,568.00
2023-04-25T05:40:40.049Z,563.00
2023-04-25T05:41:40.049Z,569.00
2023-04-25T05:42:40.056Z,629.00
2023-04-25T05:43:40.057Z,659.00
2023-04-25T05:44:40.078Z,667.00
2023-04-25T05:45:40.102Z,676.00
2023-04-25T05:46:40.152Z,681.00
2023-04-25T05:47:40.228Z,740.00
2023-04-25T05:48:40.274Z,750.00
2023-04-25T05:49:40.348Z,757.00
2023-04-25T05:50:40.436Z,755.00
2023-04-25T05:51:40.488Z,469.00
2023-04-25T05:52:40.549Z,453.00
2023-04-25T05:53:40.551Z,494.00
2023-04-25T05:54:40.574Z,425.00
2023-04-25T05:55:40.628Z,412.00
2023-04-25T05:56:40.660Z,421.00
2023-04-25T05:57:40.696Z,423.00
2023-04-25T05:58:40.720Z,411.00
2023-04-25T05:59:40.768Z,455.00
2023-04-25T06:00:40.802Z,464.00
2023-04-25T06:01:40.840Z,532.00
2023-04-25T06:02:41.142Z,525.00
2023-04-25T06:03:41.011Z,551.00
2023-04-25T06:04:41.000Z,557.00
2023-04-25T06:05:41.169Z,561.00
2023-04-25T06:06:40.971Z,587.00
2023-04-25T06:07:41.005Z,611.00
2023-04-25T06:08:41.016Z,630.00
2023-04-25T06:09:41.042Z,634.00
2023-04-25T06:10:41.065Z,643.00
2023-04-25T06:11:41.087Z,648.00
2023-04-25T06:12:41.100Z,693.00
2023-04-25T06:13:41.123Z,710.00
2023-04-25T06:14:41.134Z,722.00
2023-04-25T06:15:41.196Z,735.00
2023-04-25T06:16:41.159Z,745.00
2023-04-25T06:17:41.208Z,795.00
2023-04-25T06:18:41.199Z,801.00
2023-04-25T06:19:41.194Z,809.00
2023-04-25T06:20:41.200Z,821.00
2023-04-25T06:21:41.213Z,831.00
2023-04-25T06:22:41.239Z,851.00
2023-04-25T06:23:41.253Z,864.00
2023-04-25T06:24:41.254Z,872.00
2023-04-25T06:25:41.266Z,882.00
2023-04-25T06:26:41.278Z,899.00
2023-04-25T06:27:41.278Z,905.00
2023-04-25T06:28:41.278Z,907.00
2023-04-25T06:29:41.298Z,908.00
2023-04-25T06:30:41.318Z,917.00
2023-04-25T06:31:41.385Z,925.00
2023-04-25T06:32:41.398Z,926.00
2023-04-25T06:33:41.352Z,929.00
2023-04-25T06:34:41.359Z,936.00
2023-04-25T06:35:41.393Z,942.00
2023-04-25T06:36:41.522Z,946.00
2023-04-25T06:37:41.566Z,947.00
2023-04-25T06:38:41.613Z,950.00
2023-04-25T06:39:41.655Z,943.00
2023-04-25T06:40:41.725Z,944.00
2023-04-25T06:41:41.777Z,949.00
2023-04-25T06:42:41.855Z,676.00
2023-04-25T06:43:41.924Z,578.00
2023-04-25T06:44:41.952Z,580.00
2023-04-25T06:45:42.043Z,489.00
2023-04-25T06:46:42.085Z,514.00
2023-04-25T06:47:42.131Z,552.00
2023-04-25T06:48:42.140Z,517.00
2023-04-25T06:49:42.195Z,491.00
2023-04-25T06:50:42.273Z,506.00
2023-04-25T06:51:42.328Z,448.00
2023-04-25T06:52:42.347Z,446.00
2023-04-25T06:53:42.379Z,469.00
2023-04-25T06:54:42.417Z,466.00
2023-04-25T06:55:42.455Z,460.00
2023-04-25T06:56:42.469Z,436.00
2023-04-25T06:57:42.505Z,449.00
2023-04-25T06:58:42.521Z,445.00
2023-04-25T06:59:42.575Z,465.00
2023-04-25T07:00:42.661Z,451.00
2023-04-25T07:01:42.703Z,483.00
2023-04-25T07:02:42.897Z,469.00
2023-04-25T07:03:42.997Z,455.00
2023-04-25T07:04:43.051Z,460.00
2023-04-25T07:05:43.049Z,461.00
2023-04-25T07:06:43.133Z,454.00
2023-04-25T07:07:43.230Z,480.00
2023-04-25T07:08:43.267Z,494.00
2023-04-25T07:09:43.312Z,528.00
2023-04-25T07:10:43.360Z,477.00
2023-04-25T07:11:43.438Z,471.00
2023-04-25T07:12:43.534Z,459.00
2023-04-25T07:13:43.613Z,459.00
2023-04-25T07:14:43.677Z,491.00
2023-04-25T07:15:43.726Z,547.00
2023-04-25T07:16:43.891Z,490.00
2023-04-25T07:17:43.907Z,482.00
2023-04-25T07:18:43.930Z,487.00
2023-04-25T07:19:44.005Z,500.00
2023-04-25T07:20:44.041Z,487.00
2023-04-25T07:21:44.138Z,494.00
2023-04-25T07:22:44.140Z,491.00
2023-04-25T07:23:44.171Z,489.00
2023-04-25T07:24:44.182Z,481.00
2023-04-25T07:25:44.224Z,497.00
2023-04-25T07:26:44.245Z,521.00
2023-04-25T07:27:44.282Z,517.00
2023-04-25T07:28:44.318Z,509.00
2023-04-25T07:29:44.357Z,556.00
2023-04-25T07:30:44.399Z,525.00
2023-04-25T07:31:44.509Z,498.00
2023-04-25T07:32:44.574Z,522.00
2023-04-25T07:33:44.608Z,529.00
2023-04-25T07:34:44.634Z,515.00
2023-04-25T07:35:44.649Z,528.00
2023-04-25T07:36:44.673Z,518.00
2023-04-25T07:37:44.713Z,528.00
2023-04-25T07:38:44.759Z,526.00
2023-04-25T07:39:44.768Z,607.00
2023-04-25T07:40:44.786Z,614.00
2023-04-25T07:41:44.896Z,618.00
2023-04-25T07:42:44.868Z,660.00
2023-04-25T07:43:44.869Z,691.00
2023-04-25T07:44:44.880Z,740.00
2023-04-25T07:45:44.959Z,751.00
2023-04-25T07:46:44.920Z,794.00
2023-04-25T07:47:44.966Z,800.00
2023-04-25T07:48:44.986Z,817.00
2023-04-25T07:49:44.973Z,815.00
2023-04-25T07:50:44.985Z,821.00
2023-04-25T07:51:45.008Z,831.00
2023-04-25T07:52:45.022Z,857.00
2023-04-25T07:53:45.067Z,877.00
2023-04-25T07:54:45.059Z,883.00
2023-04-25T07:55:45.073Z,886.00
2023-04-25T07:56:52.106Z,891.00
2023-04-25T07:57:46.204Z,895.00
2023-04-25T07:58:45.121Z,896.00
2023-04-25T07:59:45.112Z,901.00
2023-04-25T08:00:45.132Z,905.00
2023-04-25T08:01:45.154Z,909.00
2023-04-25T08:02:45.281Z,913.00
2023-04-25T08:03:45.462Z,915.00
2023-04-25T08:04:45.382Z,913.00
2023-04-25T08:05:45.298Z,911.00
2023-04-25T08:06:45.252Z,916.00
2023-04-25T08:07:45.239Z,918.00
2023-04-25T08:08:45.269Z,925.00
2023-04-25T08:09:45.279Z,935.00
2023-04-25T08:10:45.284Z,942.00
2023-04-25T08:11:45.309Z,945.00
2023-04-25T08:12:45.299Z,950.00
2023-04-25T08:13:45.322Z,950.00
2023-04-25T08:14:45.318Z,952.00
2023-04-25T08:15:45.423Z,954.00
2023-04-25T08:16:45.356Z,954.00
2023-04-25T08:17:45.389Z,953.00
2023-04-25T08:18:45.390Z,950.00
2023-04-25T08:19:45.400Z,962.00
2023-04-25T08:20:45.429Z,974.00
2023-04-25T08:21:45.470Z,992.00
2023-04-25T08:22:45.508Z,995.00
2023-04-25T08:23:45.545Z,1004.00
2023-04-25T08:24:45.581Z,1008.00
2023-04-25T08:25:45.618Z,1009.00
2023-04-25T08:26:45.658Z,1004.00
2023-04-25T08:27:45.653Z,1003.00
2023-04-25T08:28:45.686Z,1004.00
2023-04-25T08:29:45.726Z,1004.00
2023-04-25T08:30:45.735Z,1003.00
2023-04-25T08:31:45.854Z,1011.00
2023-04-25T08:32:45.851Z,1000.00
2023-04-25T08:33:45.802Z,922.00
2023-04-25T08:34:45.984Z,919.00
2023-04-25T08:35:45.832Z,903.00
2023-04-25T08:36:45.858Z,885.00
2023-04-25T08:37:45.862Z,875.00
2023-04-25T08:38:45.875Z,865.00
2023-04-25T08:39:45.908Z,856.00
2023-04-25T08:40:45.956Z,850.00
2023-04-25T08:41:45.957Z,849.00
2023-04-25T08:42:45.973Z,845.00
2023-04-25T08:43:45.994Z,841.00
2023-04-25T08:44:46.000Z,838.00
2023-04-25T08:45:46.028Z,837.00
2023-04-25T08:46:46.291Z,832.00
2023-04-25T08:47:46.162Z,836.00
2023-04-25T08:48:46.129Z,922.00
2023-04-25T08:49:46.160Z,913.00
2023-04-25T08:50:46.163Z,901.00
2023-04-25T08:51:46.199Z,897.00
2023-04-25T08:52:46.193Z,883.00
2023-04-25T08:53:46.369Z,851.00
2023-04-25T08:54:46.464Z,835.00
2023-04-25T08:55:46.239Z,802.00
2023-04-25T08:56:46.243Z,874.00
2023-04-25T08:57:46.285Z,776.00
2023-04-25T08:58:46.308Z,765.00
2023-04-25T08:59:46.311Z,760.00
2023-04-25T09:00:46.415Z,751.00
2023-04-25T09:01:46.392Z,747.00
2023-04-25T09:02:46.502Z,743.00
2023-04-25T09:03:46.488Z,747.00
2023-04-25T09:04:46.449Z,753.00
2023-04-25T09:05:46.468Z,752.00
2023-04-25T09:06:46.515Z,753.00
2023-04-25T09:07:48.338Z,754.00
2023-04-25T09:08:46.701Z,747.00
2023-04-25T09:09:46.734Z,743.00
2023-04-25T09:10:46.738Z,734.00
2023-04-25T09:11:46.748Z,725.00
2023-04-25T09:12:46.750Z,719.00
2023-04-25T09:13:46.772Z,711.00
2023-04-25T09:14:46.888Z,690.00
2023-04-25T09:15:46.793Z,676.00
2023-04-25T09:16:46.955Z,671.00
2023-04-25T09:17:46.824Z,669.00
2023-04-25T09:18:49.002Z,664.00
2023-04-25T09:19:46.853Z,656.00
2023-04-25T09:21:48.344Z,641.00
2023-04-25T09:22:46.860Z,636.00
2023-04-25T09:23:46.955Z,633.00
2023-04-25T09:24:46.997Z,625.00
2023-04-25T09:25:46.904Z,618.00
2023-04-25T09:26:46.900Z,613.00
2023-04-25T09:27:46.907Z,611.00
2023-04-25T09:28:46.954Z,608.00
2023-04-25T09:29:46.924Z,606.00
2023-04-25T09:30:46.943Z,602.00
2023-04-25T09:31:47.024Z,602.00
2023-04-25T09:32:47.014Z,600.00
2023-04-25T09:33:47.018Z,597.00
2023-04-25T09:34:46.945Z,592.00
2023-04-25T09:35:47.128Z,591.00
2023-04-25T09:36:47.517Z,591.00
2023-04-25T09:37:47.152Z,590.00
2023-04-25T09:38:47.348Z,588.00
2023-04-25T09:39:47.299Z,590.00
2023-04-25T09:40:47.350Z,590.00
2023-04-25T09:41:47.486Z,681.00
2023-04-25T09:42:47.476Z,680.00
2023-04-25T09:43:47.560Z,678.00
2023-04-25T09:44:47.611Z,732.00
2023-04-25T09:45:47.722Z,774.00
2023-04-25T09:46:47.752Z,773.00
2023-04-25T09:47:47.880Z,847.00
2023-04-25T09:48:47.910Z,854.00
2023-04-25T09:49:47.967Z,851.00
2023-04-25T09:50:48.033Z,849.00
2023-04-25T09:51:48.118Z,852.00
2023-04-25T09:52:48.137Z,858.00
2023-04-25T09:53:48.207Z,871.00
2023-04-25T09:54:48.251Z,882.00
2023-04-25T09:55:48.289Z,901.00
2023-04-25T09:56:48.341Z,923.00
2023-04-25T09:57:48.348Z,947.00
2023-04-25T09:58:48.537Z,952.00
2023-04-25T09:59:48.383Z,957.00
2023-04-25T10:00:48.365Z,961.00
2023-04-25T10:01:48.452Z,967.00
2023-04-25T10:02:48.485Z,989.00
2023-04-25T10:03:48.432Z,1003.00
2023-04-25T10:04:48.380Z,1018.00
2023-04-25T10:05:48.376Z,1022.00
2023-04-25T10:06:48.376Z,1024.00
2023-04-25T10:07:48.380Z,1025.00
2023-04-25T10:08:48.378Z,1018.00
2023-04-25T10:09:48.382Z,1014.00
2023-04-25T10:10:48.386Z,1010.00
2023-04-25T10:11:48.379Z,1005.00
2023-04-25T10:12:48.389Z,1005.00
2023-04-25T10:13:48.606Z,1030.00
2023-04-25T10:14:48.386Z,1032.00
2023-04-25T10:15:48.400Z,1031.00
2023-04-25T10:16:48.387Z,1036.00
2023-04-25T10:17:48.425Z,1028.00
2023-04-25T10:18:48.374Z,1022.00
2023-04-25T10:19:48.389Z,1018.00
2023-04-25T10:20:48.376Z,1017.00
2023-04-25T10:21:48.387Z,1018.00
2023-04-25T10:22:48.388Z,1024.00
2023-04-25T10:23:48.550Z,1032.00
2023-04-25T10:24:48.387Z,1032.00
2023-04-25T10:25:48.369Z,1019.00
2023-04-25T10:26:48.375Z,1020.00
2023-04-25T10:27:48.375Z,1014.00
2023-04-25T10:28:48.372Z,1008.00
2023-04-25T10:29:48.384Z,998.00
2023-04-25T10:30:48.397Z,996.00
2023-04-25T10:31:48.375Z,1003.00
2023-04-25T10:32:48.344Z,1010.00
2023-04-25T10:33:48.617Z,1024.00
2023-04-25T10:34:48.424Z,1014.00
2023-04-25T10:35:48.348Z,1067.00
2023-04-25T10:36:48.350Z,855.00
2023-04-25T10:37:48.374Z,958.00
2023-04-25T10:38:48.349Z,931.00
2023-04-25T10:39:48.385Z,925.00
2023-04-25T10:40:48.355Z,918.00
2023-04-25T10:41:48.357Z,895.00
2023-04-25T10:42:48.364Z,828.00
2023-04-25T10:43:48.362Z,796.00
2023-04-25T10:44:48.416Z,803.00
2023-04-25T10:45:48.378Z,799.00
2023-04-25T10:46:48.431Z,819.00
2023-04-25T10:47:48.479Z,820.00
2023-04-25T10:48:48.400Z,797.00
2023-04-25T10:49:48.406Z,784.00
2023-04-25T10:50:48.417Z,778.00
2023-04-25T10:51:55.314Z,813.00
2023-04-25T10:52:49.427Z,808.00
2023-04-25T10:53:48.632Z,806.00
2023-04-25T10:54:48.449Z,802.00
2023-04-25T10:55:48.532Z,793.00
2023-04-25T10:56:48.454Z,783.00
2023-04-25T10:57:48.448Z,796.00
2023-04-25T10:58:50.280Z,751.00
2023-04-25T10:59:48.496Z,844.00
2023-04-25T11:01:49.528Z,858.00
2023-04-25T11:02:48.604Z,867.00
2023-04-25T11:03:48.643Z,857.00
2023-04-25T11:04:48.787Z,846.00
2023-04-25T11:06:50.786Z,857.00
2023-04-25T11:08:00.056Z,866.00
2023-04-25T11:08:49.649Z,868.00
2023-04-25T11:09:48.546Z,848.00
2023-04-25T11:10:50.185Z,769.00
2023-04-25T11:11:48.557Z,815.00
2023-04-25T11:12:48.581Z,832.00
2023-04-25T11:13:48.585Z,828.00
2023-04-25T11:14:37.813Z,854.00
2023-04-25T11:14:48.667Z,752.00
2023-04-25T11:15:55.022Z,806.00
2023-04-25T11:16:49.812Z,770.00
2023-04-25T11:17:48.964Z,757.00
2023-04-25T11:18:48.856Z,772.00
2023-04-25T11:19:48.772Z,759.00
2023-04-25T11:20:48.765Z,702.00
2023-04-25T11:21:48.773Z,703.00
2023-04-25T11:22:50.362Z,779.00
2023-04-25T11:23:48.971Z,793.00
2023-04-25T11:24:48.832Z,835.00
2023-04-25T11:25:48.838Z,822.00
2023-04-25T11:26:48.844Z,813.00
2023-04-25T11:27:48.891Z,817.00
2023-04-25T11:28:48.856Z,827.00
2023-04-25T11:29:48.880Z,826.00
2023-04-25T11:30:48.925Z,817.00
2023-04-25T11:31:48.921Z,806.00
2023-04-25T11:32:48.913Z,764.00
2023-04-25T11:33:49.086Z,731.00
2023-04-25T11:34:48.939Z,726.00
2023-04-25T11:35:48.916Z,722.00
2023-04-25T11:36:48.929Z,721.00
2023-04-25T11:37:48.931Z,719.00
2023-04-25T11:38:48.933Z,715.00
2023-04-25T11:39:48.948Z,710.00
2023-04-25T11:40:48.947Z,704.00
2023-04-25T11:41:49.008Z,695.00
2023-04-25T11:42:48.974Z,684.00
2023-04-25T11:43:49.007Z,664.00
2023-04-25T11:44:48.982Z,658.00
2023-04-25T11:45:49.023Z,658.00
2023-04-25T11:46:48.996Z,659.00
2023-04-25T11:47:49.032Z,657.00
2023-04-25T11:48:49.251Z,655.00
2023-04-25T11:49:49.018Z,649.00
2023-04-25T11:50:49.027Z,640.00
2023-04-25T11:51:49.030Z,630.00
2023-04-25T11:52:49.026Z,623.00
2023-04-25T11:53:49.029Z,618.00
2023-04-25T11:54:49.055Z,618.00
2023-04-25T11:55:49.062Z,614.00
2023-04-25T11:56:49.072Z,610.00
2023-04-25T11:57:49.062Z,612.00
2023-04-25T11:58:49.073Z,613.00
2023-04-25T11:59:49.085Z,611.00
2023-04-25T12:00:50.305Z,607.00
2023-04-25T12:01:49.096Z,602.00
2023-04-25T12:02:49.252Z,599.00
2023-04-25T12:03:49.285Z,596.00
2023-04-25T12:04:49.294Z,591.00
2023-04-25T12:05:49.258Z,588.00
2023-04-25T12:06:49.219Z,583.00
2023-04-25T12:07:49.136Z,578.00
2023-04-25T12:08:49.301Z,571.00
2023-04-25T12:09:49.128Z,566.00
2023-04-25T12:10:49.126Z,565.00
2023-04-25T12:11:49.132Z,564.00
2023-04-25T12:12:49.199Z,568.00
2023-04-25T12:13:49.268Z,568.00
2023-04-25T12:14:49.340Z,571.00
2023-04-25T12:15:49.418Z,575.00
2023-04-25T12:16:49.407Z,571.00
2023-04-25T12:17:49.461Z,564.00
2023-04-25T12:18:49.661Z,558.00
2023-04-25T12:19:49.439Z,552.00
2023-04-25T12:20:49.429Z,550.00
2023-04-25T12:21:57.900Z,549.00
2023-04-25T12:22:50.444Z,545.00
2023-04-25T12:23:49.438Z,545.00
2023-04-25T12:24:49.460Z,543.00
2023-04-25T12:25:49.459Z,539.00
2023-04-25T12:26:49.468Z,540.00
2023-04-25T12:27:49.467Z,539.00
2023-04-25T12:28:49.782Z,539.00
2023-04-25T12:29:50.141Z,539.00